createdAt,value
2023-02-03T00:01:29.702Z,10.93
2023-02-03T00:06:32.528Z,10.87
2023-02-03T00:11:34.281Z,11.01
2023-02-03T00:16:36.140Z,10.98
2023-02-03T00:21:37.742Z,10.91
2023-02-03T00:26:43.186Z,10.93
2023-02-03T00:31:44.887Z,10.87
2023-02-03T00:36:47.103Z,11.01
2023-02-03T00:41:48.707Z,11.01
2023-02-03T00:46:50.236Z,10.96
2023-02-03T00:51:52.230Z,10.99
2023-02-03T00:56:55.600Z,11.00
2023-02-03T01:01:57.211Z,10.97
2023-02-03T01:06:59.460Z,10.90
2023-02-03T01:12:01.268Z,11.02
2023-02-03T01:17:02.995Z,10.93
2023-02-03T01:22:04.760Z,11.02
2023-02-03T01:27:06.416Z,11.01
2023-02-03T01:32:08.092Z,11.03
2023-02-03T01:37:10.185Z,11.11
2023-02-03T01:42:15.902Z,11.24
2023-02-03T01:47:22.067Z,11.23
2023-02-03T01:52:24.727Z,11.17
2023-02-03T01:57:41.000Z,11.20
2023-02-03T02:02:45.478Z,11.14
2023-02-03T02:07:48.354Z,11.10
2023-02-03T02:12:50.112Z,11.07
2023-02-03T02:18:40.261Z,11.18
2023-02-03T02:24:10.217Z,11.18
2023-02-03T02:29:42.171Z,11.24
2023-02-03T02:35:26.204Z,11.19
2023-02-03T02:40:32.283Z,11.10
2023-02-03T02:45:49.498Z,11.06
2023-02-03T02:50:55.233Z,11.13
2023-02-03T02:55:59.372Z,11.02
2023-02-03T03:01:02.480Z,11.11
2023-02-03T03:06:09.256Z,11.01
2023-02-03T03:11:14.333Z,11.18
2023-02-03T03:16:18.146Z,11.17
2023-02-03T03:21:36.085Z,11.10
2023-02-03T03:26:57.029Z,11.14
2023-02-03T03:31:58.797Z,11.07
2023-02-03T03:37:24.030Z,11.00
2023-02-03T03:42:34.134Z,11.07
2023-02-03T03:47:49.750Z,11.10
2023-02-03T03:52:54.211Z,11.09
2023-02-03T03:58:18.619Z,11.11
2023-02-03T04:03:35.303Z,11.10
2023-02-03T04:08:36.883Z,11.06
2023-02-03T04:13:38.478Z,11.14
2023-02-03T04:18:41.155Z,11.12
2023-02-03T04:23:42.791Z,11.19
2023-02-03T04:28:44.802Z,11.06
2023-02-03T04:33:46.358Z,11.05
2023-02-03T04:38:51.253Z,11.06
2023-02-03T04:43:53.186Z,11.18
2023-02-03T04:48:54.778Z,11.09
2023-02-03T04:53:56.657Z,10.99
2023-02-03T04:58:58.476Z,11.16
2023-02-03T05:04:00.295Z,10.99
2023-02-03T05:09:02.275Z,11.06
2023-02-03T05:14:04.172Z,11.06
2023-02-03T05:19:06.132Z,11.08
2023-02-03T05:24:08.038Z,11.15
2023-02-03T05:29:09.797Z,11.15
2023-02-03T05:34:11.733Z,11.09
2023-02-03T05:39:13.764Z,11.19
2023-02-03T05:44:15.848Z,11.21
2023-02-03T05:49:17.620Z,11.23
2023-02-03T05:54:19.407Z,11.24
2023-02-03T05:59:20.961Z,11.10
2023-02-03T06:04:22.636Z,11.11
2023-02-03T06:09:24.456Z,11.12
2023-02-03T06:14:26.036Z,11.11
2023-02-03T06:19:27.819Z,11.22
2023-02-03T06:24:29.495Z,11.30
2023-02-03T06:29:31.298Z,11.34
2023-02-03T06:34:33.388Z,11.20
2023-02-03T06:39:35.375Z,11.36
2023-02-03T06:44:36.979Z,11.22
2023-02-03T06:49:38.669Z,11.26
2023-02-03T06:54:40.250Z,11.24
2023-02-03T06:59:42.066Z,11.20
2023-02-03T07:04:43.694Z,11.22
2023-02-03T07:09:45.313Z,11.25
2023-02-03T07:14:46.916Z,11.27
2023-02-03T07:19:48.531Z,11.23
2023-02-03T07:24:50.181Z,11.23
2023-02-03T07:29:52.021Z,11.37
2023-02-03T07:34:53.720Z,11.48
2023-02-03T07:39:55.415Z,11.36
2023-02-03T07:44:57.062Z,11.41
2023-02-03T07:49:58.726Z,11.29
2023-02-03T07:55:00.559Z,11.34
2023-02-03T08:00:02.428Z,11.55
2023-02-03T08:05:14.856Z,11.31
2023-02-03T08:10:16.913Z,11.43
2023-02-03T08:15:18.579Z,11.41
2023-02-03T08:20:20.679Z,11.48
2023-02-03T08:25:22.895Z,11.51
2023-02-03T08:30:25.926Z,11.58
2023-02-03T08:35:28.056Z,11.53
2023-02-03T08:40:30.564Z,11.54
2023-02-03T08:45:32.621Z,11.53
2023-02-03T08:50:34.818Z,11.48
2023-02-03T08:55:39.472Z,11.52
2023-02-03T09:00:42.178Z,11.32
2023-02-03T09:05:43.932Z,11.22
2023-02-03T09:10:45.473Z,11.22
2023-02-03T09:15:47.475Z,11.26
2023-02-03T09:20:49.649Z,11.28
2023-02-03T09:25:51.480Z,11.30
2023-02-03T09:30:53.163Z,11.31
2023-02-03T09:35:55.751Z,11.18
2023-02-03T09:41:26.620Z,11.28
2023-02-03T09:46:33.516Z,11.17
2023-02-03T09:51:47.740Z,11.09
2023-02-03T09:56:52.431Z,11.23
2023-02-03T10:02:00.135Z,11.20
2023-02-03T10:07:17.655Z,11.14
2023-02-03T10:12:46.813Z,11.01
2023-02-03T10:17:55.530Z,11.05
2023-02-03T10:23:01.953Z,10.91
2023-02-03T10:28:14.769Z,10.96
2023-02-03T10:33:19.104Z,10.76
2023-02-03T10:38:36.032Z,10.71
2023-02-03T10:43:38.411Z,10.61
2023-02-03T10:48:40.019Z,10.67
2023-02-03T10:53:41.720Z,10.69
2023-02-03T10:58:58.305Z,10.77
2023-02-03T11:04:05.232Z,10.72
2023-02-03T11:09:28.854Z,10.97
2023-02-03T11:14:38.280Z,10.88
2023-02-03T11:19:40.138Z,10.86
2023-02-03T11:24:42.858Z,10.80
2023-02-03T11:29:50.906Z,10.95
2023-02-03T11:35:05.410Z,11.06
2023-02-03T11:40:06.930Z,11.08
2023-02-03T11:45:24.391Z,11.17
2023-02-03T11:50:47.764Z,11.09
2023-02-03T11:56:07.727Z,11.17
2023-02-03T12:01:27.807Z,11.12
2023-02-03T12:06:38.435Z,11.32
2023-02-03T12:12:11.751Z,11.28
2023-02-03T12:17:50.410Z,11.25
2023-02-03T12:23:02.601Z,11.30
2023-02-03T12:28:09.215Z,11.38
2023-02-03T12:33:24.266Z,11.41
2023-02-03T12:38:38.564Z,11.46
2023-02-03T12:43:46.169Z,11.50
2023-02-03T12:48:56.924Z,11.55
2023-02-03T12:54:06.527Z,11.54
2023-02-03T12:59:22.419Z,11.59
2023-02-03T13:04:44.007Z,11.53
2023-02-03T13:09:54.984Z,11.60
2023-02-03T13:15:11.434Z,11.64
2023-02-03T13:20:19.685Z,11.61
2023-02-03T13:25:45.478Z,11.48
2023-02-03T13:31:22.907Z,11.44
2023-02-03T13:36:30.436Z,11.43
2023-02-03T13:41:41.149Z,11.08
2023-02-03T13:46:43.016Z,11.10
2023-02-03T13:51:46.415Z,11.02
2023-02-03T13:57:03.322Z,10.86
2023-02-03T14:02:19.833Z,10.93
2023-02-03T14:07:24.248Z,10.91
2023-02-03T14:12:35.515Z,10.87
2023-02-03T14:17:43.454Z,10.73
2023-02-03T14:22:45.189Z,10.71
2023-02-03T14:27:48.873Z,10.78
2023-02-03T14:33:01.879Z,10.85
2023-02-03T14:38:09.355Z,10.88
2023-02-03T14:43:22.855Z,10.90
2023-02-03T14:48:30.522Z,10.85
2023-02-03T14:53:43.990Z,11.01
2023-02-03T14:58:50.371Z,11.18
2023-02-03T15:04:13.738Z,11.26
2023-02-03T15:09:39.339Z,11.23
2023-02-03T15:14:41.062Z,11.25
2023-02-03T15:19:43.128Z,11.23
2023-02-03T15:24:44.899Z,11.24
2023-02-03T15:29:46.620Z,11.23
2023-02-03T15:34:49.656Z,11.29
2023-02-03T15:39:54.045Z,11.32
2023-02-03T15:45:24.304Z,11.34
2023-02-03T15:50:31.180Z,11.36
2023-02-03T15:55:38.297Z,11.35
2023-02-03T16:00:41.156Z,11.44
2023-02-03T16:05:42.983Z,11.35
2023-02-03T16:10:44.643Z,11.38
2023-02-03T16:15:57.707Z,11.29
2023-02-03T16:20:59.397Z,11.29
2023-02-03T16:26:28.756Z,11.22
2023-02-03T16:31:30.443Z,11.12
2023-02-03T16:36:32.320Z,11.15
2023-02-03T16:41:34.160Z,11.09
2023-02-03T16:46:37.194Z,10.94
2023-02-03T16:51:42.068Z,10.83
2023-02-03T16:56:43.710Z,10.63
2023-02-03T17:01:45.438Z,10.63
2023-02-03T17:06:47.184Z,10.59
2023-02-03T17:11:49.031Z,10.58
2023-02-03T17:16:50.997Z,10.49
2023-02-03T17:21:52.698Z,10.54
2023-02-03T17:26:54.529Z,10.44
2023-02-03T17:31:56.310Z,10.45
2023-02-03T17:36:58.130Z,10.45
2023-02-03T17:57:57.679Z,10.45
2023-02-03T18:03:00.008Z,10.47
2023-02-03T18:08:08.918Z,10.44
2023-02-03T18:13:18.201Z,10.51
2023-02-03T18:23:37.422Z,10.61
2023-02-03T18:28:40.066Z,10.72
2023-02-03T18:33:43.702Z,10.57
2023-02-03T18:38:47.504Z,10.67
2023-02-03T18:43:49.958Z,10.68
2023-02-03T18:48:52.184Z,10.69
2023-02-03T18:53:58.454Z,10.75
2023-02-03T18:59:00.201Z,10.71
2023-02-03T19:04:02.969Z,10.79
2023-02-03T19:09:04.934Z,10.81
2023-02-03T19:14:06.531Z,10.77
2023-02-03T19:19:08.400Z,10.72
2023-02-03T19:24:13.352Z,10.66
2023-02-03T19:29:15.781Z,10.65
2023-02-03T19:34:17.797Z,10.73
2023-02-03T19:39:19.430Z,10.75
2023-02-03T19:44:21.186Z,10.81
2023-02-03T19:49:22.923Z,10.82
2023-02-03T19:54:24.587Z,10.96
2023-02-03T19:59:26.217Z,10.91
2023-02-03T20:04:27.804Z,10.77
2023-02-03T20:09:29.387Z,10.75
2023-02-03T20:14:31.112Z,10.81
2023-02-03T20:19:33.375Z,10.88
2023-02-03T20:24:35.392Z,10.92
2023-02-03T20:29:37.307Z,10.83
2023-02-03T20:34:39.093Z,10.71
2023-02-03T20:39:41.272Z,10.85
2023-02-03T20:44:43.746Z,10.85
2023-02-03T20:49:46.250Z,10.99
2023-02-03T20:54:47.914Z,10.76
2023-02-03T20:59:49.596Z,10.87
2023-02-03T21:04:51.161Z,10.92
2023-02-03T21:09:54.276Z,10.78
2023-02-03T21:14:55.927Z,10.89
2023-02-03T21:19:57.717Z,10.86
2023-02-03T21:25:01.107Z,10.84
2023-02-03T21:30:22.255Z,10.82
2023-02-03T21:35:36.053Z,10.75
2023-02-03T21:40:37.756Z,10.77
2023-02-03T21:45:42.802Z,10.74
2023-02-03T21:50:44.543Z,10.64
2023-02-03T21:55:46.217Z,10.51
2023-02-03T22:00:48.039Z,10.61
2023-02-03T22:05:50.018Z,10.54
2023-02-03T22:10:51.778Z,10.59
2023-02-03T22:15:53.490Z,10.48
2023-02-03T22:20:55.320Z,10.62
2023-02-03T22:25:57.096Z,10.58
2023-02-03T22:30:58.685Z,10.61
2023-02-03T22:36:00.557Z,10.59
2023-02-03T22:41:03.048Z,10.53
2023-02-03T22:46:05.097Z,10.55
2023-02-03T22:51:07.254Z,10.61
2023-02-03T22:56:08.986Z,10.46
2023-02-03T23:01:10.715Z,10.50
2023-02-03T23:06:12.338Z,10.55
2023-02-03T23:11:13.978Z,10.55
2023-02-03T23:16:15.744Z,10.53
2023-02-03T23:21:17.486Z,10.45
2023-02-03T23:26:19.084Z,10.51
2023-02-03T23:31:20.915Z,10.51
2023-02-03T23:36:22.541Z,10.46
2023-02-03T23:41:24.283Z,10.37
2023-02-03T23:46:25.894Z,10.54
2023-02-03T23:51:27.513Z,10.42
2023-02-03T23:56:29.071Z,10.42
